createdAt,value
2023-02-14T00:01:23.842Z,100.00
2023-02-14T00:03:51.255Z,100.00
2023-02-14T00:06:18.559Z,100.00
2023-02-14T00:08:46.290Z,100.00
2023-02-14T00:11:13.790Z,100.00
2023-02-14T00:14:01.631Z,100.00
2023-02-14T00:16:28.953Z,100.00
2023-02-14T00:19:05.955Z,100.00
2023-02-14T00:21:36.285Z,100.00
2023-02-14T00:24:09.590Z,100.00
2023-02-14T05:07:32.864Z,100.00
2023-02-14T05:12:53.104Z,100.00
2023-02-14T05:15:20.806Z,100.00
2023-02-14T05:17:48.197Z,100.00
2023-02-14T05:20:15.544Z,100.00
2023-02-14T05:22:42.946Z,100.00
2023-02-14T05:25:10.306Z,100.00
2023-02-14T05:27:37.520Z,100.00
2023-02-14T05:30:05.821Z,100.00
2023-02-14T05:32:33.213Z,100.00
2023-02-14T05:35:01.319Z,100.00
2023-02-14T05:37:28.641Z,100.00
2023-02-14T05:39:56.462Z,100.00
2023-02-14T05:42:23.686Z,100.00
2023-02-14T05:44:50.976Z,100.00
2023-02-14T05:47:18.215Z,100.00
2023-02-14T05:49:46.038Z,100.00
2023-02-14T05:52:13.278Z,100.00
2023-02-14T05:54:40.576Z,100.00
2023-02-14T05:57:07.845Z,100.00
2023-02-14T05:59:35.313Z,100.00
2023-02-14T06:02:03.065Z,100.00
2023-02-14T06:04:30.680Z,100.00
2023-02-14T06:06:58.048Z,100.00
2023-02-14T06:09:25.473Z,100.00
2023-02-14T06:11:55.260Z,100.00
2023-02-14T06:14:23.020Z,100.00
2023-02-14T06:16:50.990Z,100.00
2023-02-14T06:19:18.374Z,100.00
2023-02-14T06:21:46.845Z,100.00
2023-02-14T06:24:14.288Z,100.00
2023-02-14T06:26:42.131Z,100.00
2023-02-14T06:29:09.463Z,100.00
2023-02-14T06:31:37.361Z,100.00
2023-02-14T06:34:04.638Z,100.00
2023-02-14T06:36:32.281Z,100.00
2023-02-14T06:38:59.568Z,100.00
2023-02-14T06:41:26.976Z,100.00
2023-02-14T06:43:54.830Z,100.00
2023-02-14T06:46:22.452Z,100.00
2023-02-14T06:48:50.916Z,100.00
2023-02-14T06:51:18.278Z,100.00
2023-02-14T06:53:45.630Z,100.00
2023-02-14T06:56:12.963Z,100.00
2023-02-14T06:58:40.253Z,100.00
2023-02-14T07:01:07.625Z,100.00
2023-02-14T07:03:35.014Z,100.00
2023-02-14T07:06:02.396Z,100.00
2023-02-14T07:08:29.663Z,100.00
2023-02-14T07:10:58.740Z,100.00
2023-02-14T07:13:26.978Z,100.00
2023-02-14T07:15:54.529Z,100.00
2023-02-14T07:18:21.993Z,100.00
2023-02-14T07:20:50.729Z,100.00
2023-02-14T07:23:18.459Z,100.00
2023-02-14T07:25:45.830Z,100.00
2023-02-14T07:28:13.599Z,100.00
2023-02-14T07:30:40.973Z,100.00
2023-02-14T07:33:08.382Z,100.00
2023-02-14T07:35:36.517Z,100.00
2023-02-14T07:38:03.899Z,100.00
2023-02-14T07:40:31.161Z,100.00
2023-02-14T07:43:00.758Z,100.00
2023-02-14T07:45:28.079Z,100.00
2023-02-14T07:47:55.714Z,100.00
2023-02-14T07:50:23.889Z,100.00
2023-02-14T07:52:51.278Z,100.00
2023-02-14T07:55:19.324Z,100.00
2023-02-14T07:57:49.847Z,100.00
2023-02-14T08:00:18.780Z,100.00
2023-02-14T08:02:47.163Z,100.00
2023-02-14T08:05:15.623Z,100.00
2023-02-14T08:07:44.353Z,100.00
2023-02-14T08:10:13.122Z,100.00
2023-02-14T08:12:59.443Z,100.00
2023-02-14T08:15:53.295Z,100.00
2023-02-14T08:18:27.168Z,100.00
2023-02-14T08:20:55.200Z,100.00
2023-02-14T08:23:23.031Z,100.00
2023-02-14T08:25:52.271Z,100.00
2023-02-14T08:28:23.308Z,100.00
2023-02-14T08:30:51.325Z,100.00
2023-02-14T08:33:19.296Z,100.00
2023-02-14T08:35:46.982Z,100.00
2023-02-14T08:38:14.847Z,100.00
2023-02-14T08:40:42.880Z,100.00
2023-02-14T08:43:11.234Z,100.00
2023-02-14T08:45:38.786Z,100.00
2023-02-14T08:48:09.465Z,100.00
2023-02-14T08:50:38.026Z,100.00
2023-02-14T08:53:10.256Z,100.00
2023-02-14T08:55:38.354Z,100.00
2023-02-14T08:58:06.750Z,100.00
2023-02-14T09:00:34.691Z,100.00
2023-02-14T09:03:02.493Z,100.00
2023-02-14T09:05:30.808Z,100.00
2023-02-14T09:07:58.510Z,100.00
2023-02-14T09:10:26.588Z,100.00
2023-02-14T09:12:53.982Z,100.00
2023-02-14T09:15:21.421Z,100.00
2023-02-14T09:17:51.044Z,100.00
2023-02-14T09:20:19.270Z,100.00
2023-02-14T09:22:48.643Z,100.00
2023-02-14T09:25:17.452Z,100.00
2023-02-14T09:27:44.923Z,100.00
2023-02-14T09:30:12.879Z,100.00
2023-02-14T09:32:40.241Z,100.00
2023-02-14T09:35:07.854Z,100.00
2023-02-14T09:37:35.243Z,100.00
2023-02-14T09:40:04.660Z,100.00
2023-02-14T09:42:46.692Z,100.00
2023-02-14T09:45:16.789Z,100.00
2023-02-14T09:47:48.966Z,100.00
2023-02-14T09:50:42.446Z,100.00
2023-02-14T09:53:23.266Z,100.00
2023-02-14T09:56:04.577Z,100.00
2023-02-14T09:58:55.051Z,100.00
2023-02-14T10:01:27.761Z,100.00
2023-02-14T10:04:01.545Z,100.00
2023-02-14T10:06:44.030Z,100.00
2023-02-14T10:09:16.517Z,100.00
2023-02-14T10:11:46.389Z,100.00
2023-02-14T10:14:27.915Z,100.00
2023-02-14T10:17:08.035Z,100.00
2023-02-14T10:19:43.446Z,100.00
2023-02-14T10:22:16.411Z,100.00
2023-02-14T10:24:57.543Z,100.00
2023-02-14T10:27:42.261Z,100.00
2023-02-14T10:30:15.104Z,100.00
2023-02-14T10:32:53.224Z,100.00
2023-02-14T10:35:38.927Z,100.00
2023-02-14T10:38:35.101Z,100.00
2023-02-14T10:41:20.916Z,100.00
2023-02-14T10:44:03.401Z,100.00
2023-02-14T10:46:53.208Z,100.00
2023-02-14T10:49:57.807Z,100.00
2023-02-14T10:52:43.903Z,100.00
2023-02-14T10:55:32.361Z,100.00
2023-02-14T10:58:02.997Z,100.00
2023-02-14T11:00:37.442Z,100.00
2023-02-14T11:03:09.489Z,100.00
2023-02-14T11:05:44.979Z,100.00
2023-02-14T11:08:22.971Z,100.00
2023-02-14T11:10:51.115Z,100.00
2023-02-14T11:13:37.280Z,100.00
2023-02-14T11:16:09.039Z,100.00
2023-02-14T11:18:40.954Z,100.00
2023-02-14T11:21:13.700Z,100.00
2023-02-14T11:23:44.491Z,100.00
2023-02-14T11:26:23.086Z,100.00
2023-02-14T11:28:55.650Z,100.00
2023-02-14T11:31:38.237Z,100.00
2023-02-14T11:34:27.573Z,100.00
2023-02-14T11:36:54.950Z,100.00
2023-02-14T11:39:33.074Z,100.00
2023-02-14T11:42:04.434Z,100.00
2023-02-14T11:44:33.998Z,100.00
2023-02-14T11:47:27.146Z,100.00
2023-02-14T11:50:01.377Z,100.00
2023-02-14T11:52:30.867Z,100.00
2023-02-14T11:54:59.182Z,100.00
2023-02-14T11:57:35.220Z,100.00
2023-02-14T12:00:14.118Z,100.00
2023-02-14T12:02:48.917Z,100.00
2023-02-14T12:05:36.790Z,100.00
2023-02-14T12:08:06.493Z,100.00
2023-02-14T12:10:39.453Z,100.00
2023-02-14T12:13:09.848Z,100.00
2023-02-14T12:15:44.873Z,100.00
2023-02-14T12:18:40.361Z,100.00
2023-02-14T12:21:25.719Z,100.00
2023-02-14T12:24:18.631Z,100.00
2023-02-14T12:27:00.289Z,100.00
2023-02-14T12:29:41.973Z,100.00
2023-02-14T12:32:30.595Z,100.00
2023-02-14T12:35:07.290Z,100.00
2023-02-14T12:38:04.421Z,100.00
2023-02-14T12:40:50.513Z,100.00
2023-02-14T12:43:45.384Z,100.00
2023-02-14T12:46:29.864Z,100.00
2023-02-14T12:49:22.548Z,100.00
2023-02-14T12:52:28.482Z,100.00
2023-02-14T12:55:18.270Z,100.00
2023-02-14T12:58:05.474Z,99.73
2023-02-14T13:00:53.698Z,99.54
2023-02-14T13:03:20.917Z,100.00
2023-02-14T13:06:05.461Z,98.80
2023-02-14T13:09:22.309Z,99.14
2023-02-14T13:12:12.916Z,100.00
2023-02-14T13:14:59.258Z,99.91
2023-02-14T13:17:46.433Z,98.06
2023-02-14T13:20:45.013Z,97.52
2023-02-14T13:23:19.103Z,95.65
2023-02-14T13:25:58.194Z,96.09
2023-02-14T13:28:27.296Z,94.26
2023-02-14T13:30:56.313Z,93.23
2023-02-14T13:33:37.991Z,90.78
2023-02-14T13:36:08.851Z,90.03
2023-02-14T13:38:51.945Z,89.82
2023-02-14T13:41:22.356Z,89.99
2023-02-14T13:43:52.907Z,89.75
2023-02-14T13:46:32.181Z,90.40
2023-02-14T13:49:31.808Z,82.48
2023-02-14T13:52:03.486Z,78.40
2023-02-14T13:54:34.335Z,75.63
2023-02-14T13:57:31.487Z,69.22
2023-02-14T14:00:17.404Z,60.49
2023-02-14T14:02:48.376Z,57.19
2023-02-14T14:05:30.735Z,50.21
2023-02-14T14:08:23.222Z,50.61
2023-02-14T14:10:55.837Z,49.52
2023-02-14T14:13:41.550Z,48.93
2023-02-14T14:16:27.529Z,45.45
2023-02-14T14:19:09.700Z,47.30
2023-02-14T14:21:41.281Z,50.17
2023-02-14T14:24:22.315Z,55.47
2023-02-14T14:26:58.191Z,56.07
2023-02-14T14:29:32.590Z,46.99
2023-02-14T14:32:08.904Z,48.93
2023-02-14T14:34:36.227Z,55.32
2023-02-14T14:37:06.750Z,58.02
2023-02-14T14:39:35.686Z,60.17
2023-02-14T14:42:15.126Z,61.96
2023-02-14T14:44:53.305Z,62.35
2023-02-14T14:47:37.854Z,63.62
2023-02-14T14:50:10.238Z,64.45
2023-02-14T14:52:41.787Z,65.12
2023-02-14T14:55:21.184Z,65.07
2023-02-14T14:57:56.996Z,65.03
2023-02-14T15:00:28.950Z,65.90
2023-02-14T15:02:57.904Z,65.81
2023-02-14T15:05:38.671Z,66.50
2023-02-14T15:08:21.988Z,66.63
2023-02-14T15:11:04.504Z,67.29
2023-02-14T15:13:57.498Z,68.87
2023-02-14T15:16:32.432Z,67.67
2023-02-14T15:19:10.470Z,68.38
2023-02-14T15:21:44.224Z,68.27
2023-02-14T15:24:16.040Z,68.36
2023-02-14T15:26:48.216Z,68.62
2023-02-14T15:29:27.672Z,68.57
2023-02-14T15:32:00.444Z,69.81
2023-02-14T15:34:32.586Z,68.57
2023-02-14T15:37:06.252Z,68.28
2023-02-14T15:39:37.823Z,68.31
2023-02-14T15:42:19.584Z,69.07
2023-02-14T15:44:46.954Z,69.38
2023-02-14T15:47:16.222Z,69.46
2023-02-14T15:49:46.606Z,70.41
2023-02-14T15:52:16.153Z,70.82
2023-02-14T15:54:47.237Z,71.65
2023-02-14T15:57:29.566Z,71.42
2023-02-14T15:59:57.219Z,72.33
2023-02-14T16:02:36.679Z,71.25
2023-02-14T16:05:15.872Z,72.21
2023-02-14T16:08:05.915Z,72.41
2023-02-14T16:10:34.536Z,72.80
2023-02-14T16:13:20.708Z,72.89
2023-02-14T16:16:06.627Z,73.77
2023-02-14T16:18:38.983Z,73.54
2023-02-14T16:21:33.197Z,74.56
2023-02-14T16:24:07.142Z,77.59
2023-02-14T16:26:35.887Z,78.00
2023-02-14T16:29:04.910Z,80.30
2023-02-14T16:31:34.345Z,77.31
2023-02-14T16:34:01.844Z,78.07
2023-02-14T16:36:31.944Z,79.03
2023-02-14T16:39:03.281Z,79.93
2023-02-14T16:41:33.136Z,79.61
2023-02-14T16:44:00.737Z,80.63
2023-02-14T16:46:35.362Z,81.72
2023-02-14T16:49:02.723Z,82.96
2023-02-14T16:51:33.861Z,84.28
2023-02-14T16:54:06.484Z,86.71
2023-02-14T16:56:42.492Z,87.38
2023-02-14T16:59:10.771Z,90.50
2023-02-14T17:01:38.083Z,92.72
2023-02-14T17:04:05.844Z,98.35
2023-02-14T17:06:35.947Z,100.00
2023-02-14T17:09:08.940Z,100.00
2023-02-14T17:11:42.264Z,100.00
2023-02-14T17:14:13.671Z,100.00
2023-02-14T17:16:42.178Z,100.00
2023-02-14T17:19:10.335Z,100.00
2023-02-14T17:21:38.452Z,100.00
2023-02-14T17:24:05.905Z,100.00
2023-02-14T17:26:33.878Z,100.00
2023-02-14T17:29:01.612Z,100.00
2023-02-14T17:31:29.100Z,100.00
2023-02-14T17:33:56.673Z,100.00
2023-02-14T17:36:24.657Z,100.00
2023-02-14T17:38:54.075Z,100.00
2023-02-14T17:41:26.520Z,100.00
2023-02-14T17:43:54.870Z,100.00
2023-02-14T17:46:22.258Z,100.00
2023-02-14T17:48:50.103Z,100.00
2023-02-14T17:51:20.352Z,100.00
2023-02-14T17:53:48.902Z,100.00
2023-02-14T17:56:22.955Z,100.00
2023-02-14T17:58:51.873Z,100.00
2023-02-14T18:01:22.232Z,100.00
2023-02-14T18:03:51.874Z,100.00
2023-02-14T18:06:19.757Z,100.00
2023-02-14T18:08:49.885Z,100.00
2023-02-14T18:11:19.462Z,100.00
2023-02-14T18:13:47.192Z,100.00
2023-02-14T18:16:18.004Z,100.00
2023-02-14T18:18:45.929Z,100.00
2023-02-14T18:21:15.810Z,100.00
2023-02-14T18:23:43.442Z,100.00
2023-02-14T18:26:13.229Z,100.00
2023-02-14T18:28:41.281Z,100.00
2023-02-14T18:31:15.269Z,100.00
2023-02-14T18:33:43.783Z,100.00
2023-02-14T18:36:14.084Z,100.00
2023-02-14T18:38:43.407Z,100.00
2023-02-14T18:41:14.058Z,100.00
2023-02-14T18:43:45.223Z,100.00
2023-02-14T18:46:18.547Z,100.00
2023-02-14T18:48:46.293Z,100.00
2023-02-14T18:51:19.177Z,100.00
2023-02-14T18:53:47.880Z,100.00
2023-02-14T18:56:17.520Z,100.00
2023-02-14T18:58:48.016Z,100.00
2023-02-14T19:01:18.093Z,100.00
2023-02-14T19:03:52.890Z,100.00
2023-02-14T19:06:21.511Z,100.00
2023-02-14T19:08:50.195Z,100.00
2023-02-14T19:11:20.218Z,100.00
2023-02-14T19:13:50.044Z,100.00
2023-02-14T19:16:21.028Z,100.00
2023-02-14T19:18:49.824Z,100.00
2023-02-14T19:21:22.370Z,100.00
2023-02-14T19:23:49.896Z,100.00
2023-02-14T19:26:23.335Z,100.00
2023-02-14T19:28:59.524Z,100.00
2023-02-14T19:31:27.821Z,100.00
2023-02-14T19:33:55.465Z,100.00
2023-02-14T19:36:24.397Z,100.00
2023-02-14T19:38:53.485Z,100.00
2023-02-14T19:41:24.860Z,100.00
2023-02-14T19:43:53.081Z,100.00
2023-02-14T19:46:21.842Z,100.00
2023-02-14T19:48:49.715Z,100.00
2023-02-14T19:51:29.682Z,100.00
2023-02-14T19:53:58.902Z,100.00
2023-02-14T19:56:28.969Z,100.00
2023-02-14T19:58:56.771Z,100.00
2023-02-14T20:01:31.885Z,100.00
2023-02-14T20:03:59.213Z,100.00
2023-02-14T20:06:29.243Z,100.00
2023-02-14T20:08:57.732Z,100.00
2023-02-14T20:11:30.590Z,100.00
2023-02-14T20:13:58.996Z,100.00
2023-02-14T20:16:28.233Z,100.00
2023-02-14T20:18:56.507Z,100.00
2023-02-14T20:21:28.205Z,100.00
2023-02-14T20:24:01.012Z,100.00
2023-02-14T20:26:30.975Z,100.00
2023-02-14T20:28:59.791Z,100.00
2023-02-14T20:31:27.165Z,100.00
2023-02-14T20:33:55.888Z,100.00
2023-02-14T20:36:24.866Z,100.00
2023-02-14T20:38:57.166Z,100.00
2023-02-14T20:41:27.621Z,100.00
2023-02-14T20:43:55.985Z,100.00
2023-02-14T20:46:23.470Z,100.00
2023-02-14T20:48:51.046Z,100.00
2023-02-14T20:51:20.920Z,100.00
2023-02-14T20:53:48.905Z,100.00
2023-02-14T20:56:17.201Z,100.00
2023-02-14T20:58:44.795Z,100.00
2023-02-14T21:01:15.332Z,100.00
2023-02-14T21:03:46.694Z,100.00
2023-02-14T21:06:14.996Z,100.00
2023-02-14T21:08:43.602Z,100.00
2023-02-14T21:11:13.437Z,100.00
2023-02-14T21:13:41.386Z,100.00
2023-02-14T21:16:12.486Z,100.00
2023-02-14T21:18:40.233Z,100.00
2023-02-14T21:21:13.443Z,100.00
2023-02-14T21:23:41.919Z,100.00
2023-02-14T21:26:09.395Z,100.00
2023-02-14T21:28:36.826Z,100.00
2023-02-14T21:31:11.065Z,100.00
2023-02-14T21:33:38.858Z,100.00
2023-02-14T21:36:12.115Z,100.00
2023-02-14T21:38:39.766Z,100.00
2023-02-14T21:41:10.694Z,100.00
2023-02-14T21:43:40.617Z,100.00
2023-02-14T21:46:14.660Z,100.00
2023-02-14T21:49:02.587Z,100.00
2023-02-14T21:51:30.237Z,100.00
2023-02-14T21:53:59.785Z,100.00
2023-02-14T21:56:28.195Z,100.00
2023-02-14T21:58:56.145Z,100.00
2023-02-14T22:01:29.098Z,100.00
2023-02-14T22:03:56.782Z,100.00
